Pioneer Knutsen — LMIK — position and weather

sailwx.info

Track history (hours):
 
Tides and Currents Weather Stations Pressure Air Temp Water Temp Dewpoint Dewpoint Depression Visibility Wind Speed Wind Dir Waves Ship Positions

Pioneer Knutsen

Last reported at 2016-Jul-27 01:27 UTC. Time now 2016-Jul-29 12:06 UTC.
Position N 63°29' E 008°60'.

Length 70 m; draft 3.6 m.

Type: Ship. MMSI: 259393000.

Date/timePositionNaut miles runAvg speedWind from/ knotsBaromVisibWave heightAir tempDewpointWater temp
2016-Jul-27 01:27N 63°29' E 008°60'1310.1
2016-Jul-27 00:11N 63°35' E 009°25'6 9.5
2016-Jul-26 23:34N 63°41' E 009°29'2 0.3
2016-Jul-26 17:34N 63°42' E 009°31'1311.6
2016-Jul-26 16:28N 63°32' E 009°14'  
2016-Jul-24 07:29N 63°29' E 008°60'1311.5
2016-Jul-24 06:21N 63°35' E 009°25'911.2
2016-Jul-24 05:33N 63°44' E 009°32'6911.2
2016-Jul-23 23:23N 64°43' E 010°53'1011.8
2016-Jul-23 22:33N 64°50' E 011°10'1111.1
2016-Jul-23 21:33N 64°57' E 011°29'1211.6
2016-Jul-23 20:32N 65°06' E 011°47'17 1.0
2016-Jul-23 03:06N 65°22' E 012°03'611.8
2016-Jul-23 02:33N 65°16' E 011°57'1211.8
2016-Jul-23 01:33N 65°05' E 011°47'1111.3
2016-Jul-23 00:33N 64°57' E 011°28'1111.0
2016-Jul-22 23:33N 64°49' E 011°09'7610.8
2016-Jul-22 16:33N 63°46' E 009°33'1111.2
2016-Jul-22 15:33N 63°35' E 009°26'  
2016-Jul-20 08:05N 63°29' E 008°60'611.0
2016-Jul-20 07:32N 63°32' E 009°12'1110.9
2016-Jul-20 06:34N 63°39' E 009°29'7911.3
2016-Jul-19 23:33N 64°47' E 011°03'1111.5
2016-Jul-19 22:33N 64°55' E 011°22'1211.8
2016-Jul-19 21:33N 65°03' E 011°43'21 1.2
2016-Jul-19 04:28N 65°21' E 012°03'1112.0
2016-Jul-19 03:32N 65°11' E 011°52'1211.9
2016-Jul-19 02:33N 65°01' E 011°40'1111.5
2016-Jul-19 01:33N 64°54' E 011°19'8610.7
2016-Jul-18 17:33N 63°42' E 009°30'1310.4
2016-Jul-18 16:21N 63°32' E 009°13'  
Track history (hours):
 
Tides and Currents Weather Stations Pressure Air Temp Water Temp Dewpoint Dewpoint Depression Visibility Wind Speed Wind Dir Waves Ship Positions

Pioneer Knutsen

Last reported at 2016-Jul-27 01:27 UTC. Time now 2016-Jul-29 12:06 UTC.
Position N 63°29' E 008°60'.

Length 70 m; draft 3.6 m.

Type: Ship. MMSI: 259393000.

Date/timePositionNaut miles runAvg speedWind from/ knotsBaromVisibWave heightAir tempDewpointWater temp
2016-Jul-27 01:27N 63°29' E 008°60'1310.1
2016-Jul-27 00:11N 63°35' E 009°25'6 9.5
2016-Jul-26 23:34N 63°41' E 009°29'2 0.3
2016-Jul-26 17:34N 63°42' E 009°31'1311.6
2016-Jul-26 16:28N 63°32' E 009°14'  
2016-Jul-24 07:29N 63°29' E 008°60'1311.5
2016-Jul-24 06:21N 63°35' E 009°25'911.2
2016-Jul-24 05:33N 63°44' E 009°32'6911.2
2016-Jul-23 23:23N 64°43' E 010°53'1011.8
2016-Jul-23 22:33N 64°50' E 011°10'1111.1
2016-Jul-23 21:33N 64°57' E 011°29'1211.6
2016-Jul-23 20:32N 65°06' E 011°47'17 1.0
2016-Jul-23 03:06N 65°22' E 012°03'611.8
2016-Jul-23 02:33N 65°16' E 011°57'1211.8
2016-Jul-23 01:33N 65°05' E 011°47'1111.3
2016-Jul-23 00:33N 64°57' E 011°28'1111.0
2016-Jul-22 23:33N 64°49' E 011°09'7610.8
2016-Jul-22 16:33N 63°46' E 009°33'1111.2
2016-Jul-22 15:33N 63°35' E 009°26'  
2016-Jul-20 08:05N 63°29' E 008°60'611.0
2016-Jul-20 07:32N 63°32' E 009°12'1110.9
2016-Jul-20 06:34N 63°39' E 009°29'7911.3
2016-Jul-19 23:33N 64°47' E 011°03'1111.5
2016-Jul-19 22:33N 64°55' E 011°22'1211.8
2016-Jul-19 21:33N 65°03' E 011°43'21 1.2
2016-Jul-19 04:28N 65°21' E 012°03'1112.0
2016-Jul-19 03:32N 65°11' E 011°52'1211.9
2016-Jul-19 02:33N 65°01' E 011°40'1111.5
2016-Jul-19 01:33N 64°54' E 011°19'8610.7
2016-Jul-18 17:33N 63°42' E 009°30'1310.4
2016-Jul-18 16:21N 63°32' E 009°13'  

Dump ship's entire track history